Time;durP1;ratioP1;P1;durP2;ratioP2;P2;SDS_P1;SDS_P2;PMS_P1;PMS_P2;Temp;Humidity;BMP_temperature;BMP_pressure;BME280_temperature;BME280_humidity;BME280_pressure;Samples;Min_cycle;Max_cycle;Signal;HPM_P1;HPM_P2
2023/03/08 00:01:14;;;;;;;;;;;7.00;56.10;;;7.37;39.14;97372.72;5026106;27;114027;-72
2023/03/08 00:03:40;;;;;;;;;;;7.00;56.20;;;7.38;39.32;97370.78;5027805;27;112990;-72
2023/03/08 00:06:08;;;;;;;;;;;7.00;56.20;;;7.37;39.39;97369.97;5033499;27;124075;-72
2023/03/08 00:08:34;;;;;;;;;;;7.00;56.30;;;7.37;39.16;97372.72;5031878;27;123238;-72
2023/03/08 00:11:05;;;;;;;;;;;7.00;56.40;;;7.40;39.54;97372.06;5039367;27;116009;-72
2023/03/08 00:13:31;;;;;;;;;;;7.00;56.40;;;7.42;39.26;97383.56;5042148;27;113919;-72
2023/03/08 00:16:02;;;;;;;;;;;7.00;56.50;;;7.42;38.87;97375.31;5037041;27;124401;-72
2023/03/08 00:18:29;;;;;;;;;;;7.00;56.50;;;7.42;39.55;97378.06;5045030;27;124858;-72
2023/03/08 00:21:02;;;;;;;;;;;7.00;56.50;;;7.43;39.38;97374.16;5047770;27;114529;-72
2023/03/08 00:23:28;;;;;;;;;;;7.00;56.60;;;7.44;39.30;97374.97;5044055;27;113684;-72
2023/03/08 00:25:55;;;;;;;;;;;7.00;56.60;;;7.44;39.07;97373.03;5052405;27;124827;-72
2023/03/08 00:28:21;;;;;;;;;;;7.00;56.60;;;7.41;39.11;97368.19;5029001;27;123011;-72
2023/03/08 00:31:01;;;;;;;;;;;7.00;56.70;;;7.39;39.40;97373.22;5042620;27;114330;-72
2023/03/08 00:33:28;;;;;;;;;;;6.90;56.60;;;7.34;39.22;97373.38;5043275;27;114034;-72
2023/03/08 00:35:55;;;;;;;;;;;6.90;56.80;;;7.32;39.62;97383.09;5039081;27;124829;-72
2023/03/08 00:38:21;;;;;;;;;;;8.30;58.00;;;7.28;39.63;97389.25;5047200;27;124585;-72
2023/03/08 00:40:48;;;;;;;;;;;6.90;57.00;;;7.22;40.07;97389.72;5048172;27;114779;-72
2023/03/08 00:43:14;;;;;;;;;;;6.80;57.00;;;7.16;39.68;97391.03;5050339;27;113706;-72
2023/03/08 00:45:40;;;;;;;;;;;6.80;57.20;;;7.12;40.24;97398.28;5050780;27;124534;-72
2023/03/08 00:48:06;;;;;;;;;;;6.70;57.20;;;7.08;39.94;97390.69;5050778;27;123930;-72
2023/03/08 00:50:33;;;;;;;;;;;6.70;57.30;;;7.05;39.79;97385.84;5042599;27;113737;-72
2023/03/08 00:52:59;;;;;;;;;;;6.70;57.50;;;7.01;39.88;97373.91;5032007;27;112924;-72
2023/03/08 00:55:25;;;;;;;;;;;6.60;57.50;;;6.99;39.99;97365.19;5049505;27;123957;-74
2023/03/08 00:57:51;;;;;;;;;;;6.60;57.60;;;6.98;40.33;97374.53;5052012;27;122888;-72
2023/03/08 01:00:18;;;;;;;;;;;6.60;57.70;;;6.96;40.22;97354.88;5045811;27;116457;-72
2023/03/08 01:02:44;;;;;;;;;;;6.60;57.80;;;6.95;40.19;97342.25;5068492;27;114808;-74
2023/03/08 01:05:11;;;;;;;;;;;6.60;57.90;;;6.92;40.66;97337.41;5048463;27;124283;-73
2023/03/08 01:07:37;;;;;;;;;;;6.60;58.10;;;6.90;40.52;97327.88;5054136;27;123662;-72
2023/03/08 01:10:04;;;;;;;;;;;6.50;58.10;;;6.89;41.03;97332.56;5049247;27;115275;-72
2023/03/08 01:12:34;;;;;;;;;;;6.50;58.10;;;6.90;40.75;97339.66;5051381;27;113040;-72
2023/03/08 01:15:02;;;;;;;;;;;6.50;58.90;;;6.88;41.00;97335.63;5045317;27;125027;-71
2023/03/08 01:17:28;;;;;;;;;;;6.50;58.40;;;6.84;41.36;97325.31;5069222;27;123633;-72
2023/03/08 01:19:55;;;;;;;;;;;6.40;58.40;;;6.82;40.69;97335.00;5050386;27;114455;-72
2023/03/08 01:22:21;;;;;;;;;;;6.40;58.60;;;6.80;41.05;97329.03;5051109;27;113679;-72
2023/03/08 01:24:48;;;;;;;;;;;6.40;58.70;;;6.78;41.33;97320.31;5050544;27;124538;-72
2023/03/08 01:27:15;;;;;;;;;;;6.60;58.90;;;6.77;40.97;97324.16;5048518;27;123778;-72
2023/03/08 01:29:42;;;;;;;;;;;6.40;58.90;;;6.73;41.25;97323.22;5035217;27;114078;-72
2023/03/08 01:32:09;;;;;;;;;;;6.30;59.00;;;6.68;41.37;97304.97;5047465;27;114283;-72
2023/03/08 01:34:36;;;;;;;;;;;6.30;59.00;;;6.66;41.44;97303.69;5051177;27;124565;-72
2023/03/08 01:37:02;;;;;;;;;;;6.30;59.20;;;6.66;41.40;97301.75;5050799;27;124131;-72
2023/03/08 01:39:29;;;;;;;;;;;6.30;59.40;;;6.63;41.61;97297.69;5054938;27;112379;-73
2023/03/08 01:41:55;;;;;;;;;;;6.20;59.40;;;6.62;41.72;97289.81;5051907;27;113499;-72
2023/03/08 01:44:22;;;;;;;;;;;6.20;59.60;;;6.59;41.92;97296.75;5049152;27;124114;-71
2023/03/08 01:46:49;;;;;;;;;;;6.20;59.70;;;6.54;41.68;97288.69;5049177;27;124470;-72
2023/03/08 01:49:18;;;;;;;;;;;6.20;59.80;;;6.52;42.40;97285.44;5049157;27;115555;-72
2023/03/08 01:52:09;;;;;;;;;;;6.10;59.80;;;6.53;42.40;97273.34;5049426;27;114777;-71
2023/03/08 01:54:56;;;;;;;;;;;6.10;59.90;;;6.50;41.79;97268.53;5044130;27;125233;-71
2023/03/08 01:57:38;;;;;;;;;;;6.10;60.00;;;6.50;41.89;97268.53;5052043;27;124183;-71
2023/03/08 02:00:08;;;;;;;;;;;6.10;60.00;;;6.52;42.15;97268.97;5048940;27;115496;-72
2023/03/08 02:02:43;;;;;;;;;;;6.10;60.00;;;6.54;42.11;97272.22;5050524;27;113801;-71
2023/03/08 02:05:10;;;;;;;;;;;6.10;60.00;;;6.53;42.11;97265.13;5045533;27;125061;-72
2023/03/08 02:07:36;;;;;;;;;;;6.10;60.20;;;6.54;42.17;97266.72;5049431;27;124286;-71
2023/03/08 02:10:03;;;;;;;;;;;6.20;60.20;;;6.58;42.13;97272.38;5043314;27;113265;-71
2023/03/08 02:12:29;;;;;;;;;;;6.20;60.30;;;6.61;42.18;97271.75;5053911;27;113744;-72
2023/03/08 02:14:56;;;;;;;;;;;6.20;60.20;;;6.64;42.52;97277.38;5028493;27;123393;-71
2023/03/08 02:17:22;;;;;;;;;;;6.20;60.30;;;6.62;42.20;97274.16;5050369;27;122927;-72
2023/03/08 02:19:54;;;;;;;;;;;6.20;60.30;;;6.63;42.26;97275.75;5027691;27;113863;-71
2023/03/08 02:22:21;;;;;;;;;;;6.20;60.30;;;6.61;41.98;97271.75;5046520;27;113861;-71
2023/03/08 02:24:47;;;;;;;;;;;6.20;60.40;;;6.57;42.67;97268.03;5041230;27;124483;-72
2023/03/08 02:27:18;;;;;;;;;;;6.20;60.30;;;6.55;42.31;97265.59;5048911;27;124228;-71
2023/03/08 02:29:45;;;;;;;;;;;6.10;60.30;;;6.55;42.53;97257.34;5037317;27;115558;-78
2023/03/08 02:32:11;;;;;;;;;;;6.20;60.40;;;6.55;42.72;97249.13;5036239;27;111925;-72
2023/03/08 02:34:37;;;;;;;;;;;4.40;59.00;;;6.55;42.52;97245.59;5051222;27;123519;-72
2023/03/08 02:37:04;;;;;;;;;;;6.10;60.50;;;6.56;42.44;97248.00;5033269;27;124897;-74
2023/03/08 02:39:30;;;;;;;;;;;6.10;60.50;;;6.58;42.17;97245.75;5051096;27;115679;-72
2023/03/08 02:41:56;;;;;;;;;;;6.20;60.60;;;6.58;42.15;97240.28;5050643;27;113495;-73
2023/03/08 02:44:23;;;;;;;;;;;6.20;60.70;;;6.56;42.29;97234.28;5050859;27;123441;-73
2023/03/08 02:46:50;;;;;;;;;;;6.10;60.60;;;6.53;42.44;97237.69;5053848;27;123693;-71
2023/03/08 02:49:17;;;;;;;;;;;6.10;60.70;;;6.49;42.48;97225.75;5052418;27;114612;-70
2023/03/08 02:51:43;;;;;;;;;;;6.10;60.80;;;6.47;42.46;97222.50;5048483;27;113548;-71
2023/03/08 02:54:09;;;;;;;;;;;6.10;60.80;;;6.44;42.33;97217.66;5038915;27;124520;-70
2023/03/08 02:56:36;;;;;;;;;;;6.00;60.80;;;6.41;42.70;97226.56;5047128;27;124264;-71
2023/03/08 02:59:04;;;;;;;;;;;6.00;60.90;;;6.39;42.56;97220.56;5050737;27;114573;-70
2023/03/08 03:01:30;;;;;;;;;;;6.00;60.90;;;6.37;42.69;97220.91;5044993;27;114501;-71
2023/03/08 03:03:56;;;;;;;;;;;6.00;61.00;;;6.35;42.98;97217.69;5046574;27;124465;-71
2023/03/08 03:06:23;;;;;;;;;;;5.90;61.00;;;6.34;43.00;97218.00;5048834;27;124765;-71
2023/03/08 03:08:49;;;;;;;;;;;5.90;61.00;;;6.34;42.78;97207.03;5045872;27;114460;-71
2023/03/08 03:11:18;;;;;;;;;;;5.90;61.20;;;6.35;42.65;97192.19;5048541;27;113740;-71
2023/03/08 03:13:45;;;;;;;;;;;5.90;61.20;;;6.35;43.26;97192.19;5040073;27;124111;-71
2023/03/08 03:16:15;;;;;;;;;;;5.90;61.20;;;6.37;42.54;97181.72;5045515;27;123842;-69
2023/03/08 03:18:42;;;;;;;;;;;5.90;61.20;;;6.38;42.79;97175.09;5046753;27;114238;-72
2023/03/08 03:21:11;;;;;;;;;;;6.00;61.30;;;6.42;43.30;97165.06;5048596;27;113664;-72
2023/03/08 03:23:37;;;;;;;;;;;6.00;61.30;;;6.47;43.19;97161.34;5047819;27;124297;-71
2023/03/08 03:26:05;;;;;;;;;;;6.00;61.30;;;6.49;42.94;97156.34;5048627;27;123937;-74
2023/03/08 03:28:31;;;;;;;;;;;6.00;61.30;;;6.50;42.84;97156.03;5042825;27;116063;-71
2023/03/08 03:30:58;;;;;;;;;;;6.10;61.30;;;6.50;43.09;97153.28;5048867;27;114677;-71
2023/03/08 03:33:24;;;;;;;;;;;6.10;61.20;;;6.53;42.71;97152.63;5044695;27;124196;-72
2023/03/08 03:35:52;;;;;;;;;;;6.10;61.30;;;6.53;42.39;97151.81;5045446;27;123855;-71
2023/03/08 03:38:19;;;;;;;;;;;6.10;61.20;;;6.54;43.16;97154.25;5048831;27;114278;-73
2023/03/08 03:40:45;;;;;;;;;;;6.10;61.20;;;6.57;42.69;97156.31;5050678;27;113769;-72
2023/03/08 03:43:12;;;;;;;;;;;6.10;61.20;;;6.61;42.49;97143.56;5054002;27;124020;-74
2023/03/08 03:45:38;;;;;;;;;;;6.20;61.30;;;6.64;42.15;97145.66;5035780;27;122195;-72
2023/03/08 03:48:04;;;;;;;;;;;6.20;61.20;;;6.67;42.66;97143.41;5048672;27;115290;-71
2023/03/08 03:50:31;;;;;;;;;;;6.20;61.20;;;6.69;42.48;97139.19;5052524;27;113842;-71
2023/03/08 03:52:57;;;;;;;;;;;6.20;61.20;;;6.70;42.03;97131.75;5047811;27;124540;-72
2023/03/08 03:55:23;;;;;;;;;;;6.20;61.10;;;6.70;42.30;97129.81;5048753;27;123780;-71
2023/03/08 03:57:50;;;;;;;;;;;6.20;61.10;;;6.72;42.28;97140.47;5046431;27;114781;-73
2023/03/08 04:00:16;;;;;;;;;;;6.20;61.10;;;6.71;42.45;97138.84;5048720;27;113496;-72
2023/03/08 04:02:42;;;;;;;;;;;6.20;61.00;;;6.70;42.52;97142.75;5047854;27;124323;-72
2023/03/08 04:05:09;;;;;;;;;;;6.20;61.00;;;6.65;42.26;97146.47;5048293;27;123638;-70
2023/03/08 04:07:35;;;;;;;;;;;6.20;61.00;;;6.63;42.56;97144.03;5056337;27;114458;-70
2023/03/08 04:10:01;;;;;;;;;;;6.20;61.00;;;6.62;42.62;97141.63;5051692;27;112636;-73
2023/03/08 04:12:27;;;;;;;;;;;6.20;61.00;;;6.60;42.40;97125.47;5048346;27;123763;-70
2023/03/08 04:14:54;;;;;;;;;;;6.20;61.00;;;6.59;42.40;97121.13;5049116;27;124343;-70
2023/03/08 04:17:20;;;;;;;;;;;6.20;61.10;;;6.58;42.97;97121.44;5052066;27;115283;-70
2023/03/08 04:19:48;;;;;;;;;;;6.10;61.00;;;6.58;42.42;97108.56;5049105;27;113665;-70
2023/03/08 04:22:15;;;;;;;;;;;6.10;61.70;;;6.57;42.67;97095.16;5051237;27;123774;-70
2023/03/08 04:24:41;;;;;;;;;;;6.10;61.10;;;6.57;42.42;97095.16;5050462;27;123825;-70
2023/03/08 04:27:07;;;;;;;;;;;6.10;61.10;;;6.58;42.77;97102.25;5052217;27;113670;-70
2023/03/08 04:29:33;;;;;;;;;;;6.10;61.10;;;6.59;42.65;97099.19;5051428;27;112954;-70
2023/03/08 04:32:00;;;;;;;;;;;6.10;61.10;;;6.59;42.85;97104.69;5048346;27;123375;-70
2023/03/08 04:34:26;;;;;;;;;;;6.10;61.10;;;6.59;42.57;97115.66;5050857;27;123724;-70
2023/03/08 04:36:53;;;;;;;;;;;6.10;61.20;;;6.60;42.62;97122.75;5049816;27;114683;-72
2023/03/08 04:39:19;;;;;;;;;;;6.10;61.20;;;6.63;42.51;97110.31;5052192;27;113600;-72
2023/03/08 04:41:45;;;;;;;;;;;6.20;61.30;;;6.63;42.66;97094.63;5043097;27;124285;-70
2023/03/08 04:44:12;;;;;;;;;;;6.20;61.30;;;6.67;42.74;97080.28;5052972;27;123701;-70
2023/03/08 04:46:38;;;;;;;;;;;6.20;61.30;;;6.68;42.42;97066.22;5044901;27;114664;-70
2023/03/08 04:49:04;;;;;;;;;;;6.20;61.30;;;6.70;42.14;97076.88;5040430;27;113946;-70
2023/03/08 04:51:30;;;;;;;;;;;6.20;61.20;;;6.71;42.74;97067.50;5041940;27;123943;-70
2023/03/08 04:53:57;;;;;;;;;;;6.20;61.30;;;6.73;42.85;97062.50;5047637;27;124071;-72
2023/03/08 04:56:23;;;;;;;;;;;6.20;61.30;;;6.74;42.79;97067.63;5053042;27;114336;-71
2023/03/08 04:58:49;;;;;;;;;;;6.30;61.40;;;6.75;42.74;97057.47;5049415;27;113653;-71
2023/03/08 05:01:17;;;;;;;;;;;6.30;61.30;;;6.77;42.20;97052.44;5041579;27;124690;-71
2023/03/08 05:03:44;;;;;;;;;;;6.30;61.30;;;6.79;42.25;97047.44;5049779;27;123914;-71
2023/03/08 05:06:12;;;;;;;;;;;6.30;61.30;;;6.81;42.30;97043.22;5043161;27;115375;-71
2023/03/08 05:08:39;;;;;;;;;;;6.30;61.30;;;6.82;42.76;97038.53;5053174;27;114644;-71
2023/03/08 05:11:06;;;;;;;;;;;6.30;61.20;;;6.84;42.04;97041.75;5050747;27;124543;-71
2023/03/08 05:13:35;;;;;;;;;;;6.40;61.40;;;6.86;42.06;97032.06;5050609;27;123961;-71
2023/03/08 05:16:03;;;;;;;;;;;6.30;61.30;;;6.89;42.36;97027.06;5048261;27;114224;-71
2023/03/08 05:18:29;;;;;;;;;;;6.40;61.30;;;6.88;42.50;97030.91;5052146;27;113462;-71
2023/03/08 05:21:01;;;;;;;;;;;6.40;61.30;;;6.85;42.37;97032.38;5041679;27;124579;-71
2023/03/08 05:23:28;;;;;;;;;;;6.40;61.30;;;6.81;42.60;97045.19;5029778;27;124068;-71
2023/03/08 05:25:58;;;;;;;;;;;6.40;61.40;;;6.80;42.31;97032.59;5041346;27;113434;-71
2023/03/08 05:28:27;;;;;;;;;;;6.30;61.30;;;6.81;42.66;97025.97;5046227;27;114106;-71
2023/03/08 05:31:11;;;;;;;;;;;6.30;62.10;;;6.82;42.57;97027.56;5047539;27;124122;-71
2023/03/08 05:33:38;;;;;;;;;;;6.40;61.50;;;6.81;42.98;97020.47;5051611;27;123381;-71
2023/03/08 05:36:05;;;;;;;;;;;6.40;61.60;;;6.82;42.87;97011.09;5049353;27;116558;-70
2023/03/08 05:38:32;;;;;;;;;;;6.40;61.70;;;6.82;42.83;97005.59;5050843;27;113934;-70
2023/03/08 05:41:03;;;;;;;;;;;6.40;61.70;;;6.82;43.01;97009.16;5048973;27;123998;-70
2023/03/08 05:43:30;;;;;;;;;;;6.40;61.70;;;6.81;43.29;97001.25;5051473;27;122720;-70
2023/03/08 05:45:59;;;;;;;;;;;6.40;61.80;;;6.80;42.95;96992.22;5065936;27;114404;-71
2023/03/08 05:48:25;;;;;;;;;;;6.30;61.70;;;6.80;43.18;96994.97;5051139;27;113773;-71
2023/03/08 05:50:51;;;;;;;;;;;6.40;61.80;;;6.82;43.00;96987.22;5053118;27;124774;-71
2023/03/08 05:53:18;;;;;;;;;;;6.40;61.90;;;6.83;43.14;96999.78;5053876;27;123658;-71
2023/03/08 05:55:45;;;;;;;;;;;6.40;61.90;;;6.83;43.04;96996.25;5050666;27;115497;-71
2023/03/08 05:58:11;;;;;;;;;;;6.40;61.90;;;6.84;42.61;97003.34;5051888;27;113734;-71
2023/03/08 06:00:37;;;;;;;;;;;6.40;61.90;;;6.84;42.76;96995.09;5050094;27;124771;-71
2023/03/08 06:03:04;;;;;;;;;;;6.30;61.80;;;6.85;43.22;97002.19;5050050;27;123749;-71
2023/03/08 06:05:31;;;;;;;;;;;6.40;62.00;;;6.84;43.36;97000.59;5050835;27;115120;-70
2023/03/08 06:07:58;;;;;;;;;;;6.40;62.00;;;6.84;43.19;97006.09;5048670;27;113831;-71
2023/03/08 06:10:24;;;;;;;;;;;6.40;62.00;;;6.85;42.99;97002.19;5045441;27;123744;-70
2023/03/08 06:12:51;;;;;;;;;;;6.40;62.00;;;6.86;42.83;96990.88;5049721;27;123380;-71
2023/03/08 06:15:17;;;;;;;;;;;6.40;62.10;;;6.88;42.71;97001.53;5048484;27;113507;-70
2023/03/08 06:17:43;;;;;;;;;;;6.40;62.10;;;6.91;43.44;96994.59;5052976;27;114932;-70
2023/03/08 06:20:10;;;;;;;;;;;6.40;62.30;;;6.93;42.89;96997.78;5047880;27;124733;-71
2023/03/08 06:22:38;;;;;;;;;;;6.50;62.40;;;6.95;43.50;96988.06;5042402;27;125211;-70
2023/03/08 06:25:05;;;;;;;;;;;6.50;62.50;;;6.99;42.93;96978.06;5052663;27;116720;-71
2023/03/08 06:27:31;;;;;;;;;;;6.50;62.50;;;7.02;42.87;96980.13;5053212;27;113232;-71
2023/03/08 06:29:57;;;;;;;;;;;6.50;62.50;;;7.09;42.91;96979.56;5048820;27;124050;-71
2023/03/08 06:32:23;;;;;;;;;;;6.60;62.70;;;7.11;42.90;96971.81;5052691;27;124083;-73
2023/03/08 06:34:51;;;;;;;;;;;6.60;62.70;;;7.13;43.36;96963.25;5053655;27;112629;-71
2023/03/08 06:37:17;;;;;;;;;;;6.60;62.80;;;7.14;42.83;96964.84;5047793;27;113704;-71
2023/03/08 06:39:44;;;;;;;;;;;6.70;62.80;;;7.18;43.13;96963.84;5038862;27;123946;-71
2023/03/08 06:42:10;;;;;;;;;;;6.70;62.90;;;7.22;43.43;96955.75;5035070;27;124618;-71
2023/03/08 06:44:36;;;;;;;;;;;6.70;63.00;;;7.25;43.14;96955.06;5035815;27;115423;-72
2023/03/08 06:47:03;;;;;;;;;;;6.70;63.00;;;7.28;43.11;96957.13;5031822;27;114550;-72
2023/03/08 06:49:29;;;;;;;;;;;6.70;63.00;;;7.30;43.38;96949.38;5051051;27;123709;-72
2023/03/08 06:51:56;;;;;;;;;;;6.80;63.10;;;7.31;43.26;96942.75;5049517;27;125148;-72
2023/03/08 06:54:23;;;;;;;;;;;6.80;63.10;;;7.35;43.72;96951.13;5051318;27;114381;-72
2023/03/08 06:56:49;;;;;;;;;;;6.80;63.20;;;7.37;43.49;96951.59;5053393;27;113018;-71
2023/03/08 06:59:16;;;;;;;;;;;6.90;63.30;;;7.41;43.30;96941.50;5048435;27;124202;-71
2023/03/08 07:01:43;;;;;;;;;;;6.90;63.40;;;7.47;43.45;96940.19;5049598;27;124271;-72
2023/03/08 07:04:11;;;;;;;;;;;6.90;63.80;;;7.48;43.60;96931.59;5051384;27;114476;-71
2023/03/08 07:06:37;;;;;;;;;;;7.00;63.70;;;7.50;43.82;96940.31;5054996;27;113907;-72
2023/03/08 07:09:04;;;;;;;;;;;7.00;63.60;;;7.53;43.09;96939.63;5045050;27;124076;-70
2023/03/08 07:11:32;;;;;;;;;;;7.00;63.60;;;7.56;43.34;96931.84;5049553;27;122930;-72
2023/03/08 07:14:00;;;;;;;;;;;7.00;63.60;;;7.62;45.06;96936.78;5046863;27;114494;-73
2023/03/08 07:16:26;;;;;;;;;;;7.10;65.70;;;7.68;44.33;96923.63;5054986;27;114021;-74
2023/03/08 07:18:55;;;;;;;;;;;7.10;65.30;;;7.68;43.97;96909.88;5049765;27;124518;-77
2023/03/08 07:21:23;;;;;;;;;;;7.20;65.00;;;7.69;43.67;96915.06;5051190;27;123881;-72
2023/03/08 07:23:51;;;;;;;;;;;7.20;64.40;;;7.70;43.53;96921.34;5052800;27;114518;-71
2023/03/08 07:26:18;;;;;;;;;;;7.20;64.30;;;7.71;43.49;96903.69;5050840;27;113733;-70
2023/03/08 07:28:48;;;;;;;;;;;7.20;64.10;;;7.73;43.49;96901.41;5033823;27;124188;-71
2023/03/08 07:31:15;;;;;;;;;;;7.20;64.00;;;7.75;43.67;96901.88;5045847;27;124137;-71
2023/03/08 07:33:41;;;;;;;;;;;7.20;63.90;;;7.78;43.47;96892.16;5047141;27;114719;-72
2023/03/08 07:36:07;;;;;;;;;;;7.30;63.90;;;7.80;43.42;96892.63;5045946;27;114729;-71
2023/03/08 07:38:34;;;;;;;;;;;7.30;63.80;;;7.81;43.28;96885.97;5044060;27;124825;-73
2023/03/08 07:41:00;;;;;;;;;;;7.30;63.70;;;7.84;43.24;96883.34;5049151;27;123593;-71
2023/03/08 07:43:26;;;;;;;;;;;7.30;63.70;;;7.86;42.98;96875.56;5034499;27;114008;-72
2023/03/08 07:45:53;;;;;;;;;;;7.30;63.60;;;7.88;43.27;96873.28;5047520;27;114026;-71
2023/03/08 07:48:19;;;;;;;;;;;7.40;63.70;;;7.92;43.10;96867.88;5039747;27;124201;-72
2023/03/08 07:50:45;;;;;;;;;;;7.40;63.60;;;7.93;43.15;96861.25;5044862;27;124503;-71
2023/03/08 07:53:12;;;;;;;;;;;7.40;63.50;;;7.93;43.30;96864.81;5049640;27;114554;-70
2023/03/08 07:55:38;;;;;;;;;;;7.40;63.40;;;7.93;43.02;96861.25;5037860;27;113910;-69
2023/03/08 07:58:04;;;;;;;;;;;7.40;63.50;;;7.92;43.08;96857.69;5037547;27;124729;-71
2023/03/08 08:00:31;;;;;;;;;;;7.40;63.50;;;7.94;43.37;96860.91;5029525;27;123931;-71
2023/03/08 08:02:57;;;;;;;;;;;7.40;63.50;;;7.97;43.19;96853.91;5038126;27;114539;-70
2023/03/08 08:05:23;;;;;;;;;;;7.40;63.60;;;8.01;43.25;96843.03;5047569;27;113605;-70
2023/03/08 08:07:50;;;;;;;;;;;7.50;63.80;;;8.05;43.16;96835.69;5047450;27;124119;-71
2023/03/08 08:10:16;;;;;;;;;;;7.50;63.80;;;8.07;43.19;96823.19;5048467;27;123322;-72
2023/03/08 08:12:42;;;;;;;;;;;7.60;64.00;;;8.05;43.62;96821.94;5046202;27;113964;-72
2023/03/08 08:15:09;;;;;;;;;;;7.60;64.00;;;8.06;43.25;96809.78;5045958;27;113883;-71
2023/03/08 08:17:35;;;;;;;;;;;7.50;63.90;;;8.05;43.72;96817.25;5047173;27;123525;-71
2023/03/08 08:20:03;;;;;;;;;;;7.50;64.10;;;8.06;43.95;96807.03;5045799;27;124463;-71
2023/03/08 08:22:30;;;;;;;;;;;7.60;64.50;;;8.07;44.13;96800.41;5050731;27;115377;-71
2023/03/08 08:24:56;;;;;;;;;;;7.60;64.90;;;8.07;44.29;96801.19;5045564;27;114441;-72
2023/03/08 08:27:22;;;;;;;;;;;7.60;65.10;;;8.09;44.46;96792.63;5049073;27;123613;-72
2023/03/08 08:29:49;;;;;;;;;;;7.60;65.40;;;8.11;44.48;96768.28;5048680;27;124034;-74
2023/03/08 08:32:16;;;;;;;;;;;7.60;65.70;;;8.12;44.45;96762.47;5049220;27;114642;-73
2023/03/08 08:34:42;;;;;;;;;;;7.60;65.80;;;8.13;44.94;96763.25;5046277;27;113758;-72
2023/03/08 08:37:08;;;;;;;;;;;7.60;66.10;;;8.13;45.01;96752.25;5043518;27;124540;-71
2023/03/08 08:39:37;;;;;;;;;;;7.60;66.30;;;8.14;45.16;96745.59;5048285;27;124031;-72
2023/03/08 08:42:03;;;;;;;;;;;7.60;66.60;;;8.14;45.23;96748.34;5047742;27;114769;-72
2023/03/08 08:44:29;;;;;;;;;;;7.60;66.80;;;8.17;45.42;96742.97;5039683;27;113939;-73
2023/03/08 08:46:57;;;;;;;;;;;7.70;67.00;;;8.22;45.28;96736.44;5047646;27;124221;-72
2023/03/08 08:49:25;;;;;;;;;;;7.70;67.10;;;8.27;45.36;96732.63;5040990;27;123882;-71
2023/03/08 08:51:52;;;;;;;;;;;7.80;67.30;;;8.28;45.50;96732.28;5048234;27;114189;-72
2023/03/08 08:54:18;;;;;;;;;;;7.70;67.50;;;8.29;45.79;96722.88;5048286;27;113930;-71
2023/03/08 08:56:44;;;;;;;;;;;7.70;68.20;;;8.29;46.09;96724.81;5047518;27;124167;-73
2023/03/08 08:59:11;;;;;;;;;;;7.70;68.10;;;8.27;46.13;96719.66;5049643;27;123369;-73
2023/03/08 09:01:42;;;;;;;;;;;7.70;68.30;;;8.28;46.00;96726.78;5041964;27;116326;-71
2023/03/08 09:04:10;;;;;;;;;;;7.70;68.60;;;8.29;46.27;96719.31;5043887;27;113420;-72
2023/03/08 09:06:36;;;;;;;;;;;7.70;68.60;;;8.31;46.31;96717.03;5050726;27;124580;-72
2023/03/08 09:09:04;;;;;;;;;;;7.80;68.80;;;8.35;46.48;96726.97;5048041;27;124093;-71
2023/03/08 09:11:31;;;;;;;;;;;7.80;68.90;;;8.39;46.49;96727.91;5043872;27;115772;-73
2023/03/08 09:13:58;;;;;;;;;;;7.80;68.90;;;8.45;46.05;96722.19;5053154;27;114674;-71
2023/03/08 09:16:29;;;;;;;;;;;7.90;68.90;;;8.48;46.32;96721.47;5051213;27;123941;-72
2023/03/08 09:18:56;;;;;;;;;;;7.90;68.90;;;8.52;46.24;96711.38;5050535;27;123690;-72
2023/03/08 09:21:24;;;;;;;;;;;7.90;68.80;;;8.56;45.78;96715.00;5035826;27;114215;-72
2023/03/08 09:23:50;;;;;;;;;;;8.00;68.80;;;8.59;46.34;96708.81;5051030;27;113829;-71
2023/03/08 09:26:17;;;;;;;;;;;8.00;69.00;;;8.59;46.27;96703.31;5051840;27;124371;-72
2023/03/08 09:28:44;;;;;;;;;;;8.00;69.10;;;8.61;46.38;96684.50;5043681;27;124770;-72
2023/03/08 09:31:13;;;;;;;;;;;8.10;69.20;;;8.61;46.51;96685.28;5036639;27;113558;-73
2023/03/08 09:33:44;;;;;;;;;;;8.10;69.40;;;8.59;46.40;96682.06;5051067;27;113976;-74
2023/03/08 09:36:11;;;;;;;;;;;8.00;69.20;;;8.58;46.47;96663.19;5051476;27;123276;-73
2023/03/08 09:38:37;;;;;;;;;;;8.00;69.30;;;8.58;46.46;96674.97;5052138;27;124614;-73
2023/03/08 09:41:26;;;;;;;;;;;8.00;69.30;;;8.61;46.30;96655.00;5065715;27;113948;-71
2023/03/08 09:43:55;;;;;;;;;;;8.10;69.30;;;8.65;46.38;96657.03;5050725;27;113755;-72
2023/03/08 09:46:27;;;;;;;;;;;8.10;69.30;;;8.66;46.37;96651.19;5045366;27;124003;-72
2023/03/08 09:48:54;;;;;;;;;;;8.10;69.30;;;8.70;46.34;96671.34;5049536;27;123908;-73
2023/03/08 09:51:21;;;;;;;;;;;8.10;69.30;;;8.71;46.14;96667.47;5049459;27;114933;-75
2023/03/08 09:53:53;;;;;;;;;;;8.20;69.30;;;8.75;46.09;96649.06;5040613;27;112759;-75
2023/03/08 09:56:32;;;;;;;;;;;8.20;69.20;;;8.79;46.13;96643.69;5034394;27;122314;-71
2023/03/08 09:59:03;;;;;;;;;;;8.20;69.10;;;8.81;46.10;96633.91;5026513;27;123210;-72
2023/03/08 10:01:38;;;;;;;;;;;8.20;69.10;;;8.89;46.00;96631.31;5025504;27;114722;-71
2023/03/08 10:04:28;;;;;;;;;;;8.30;69.10;;;8.94;45.93;96631.06;5035098;27;115289;-71
2023/03/08 10:07:31;;;;;;;;;;;8.40;69.20;;;9.00;45.83;96624.13;5024909;27;123282;-72
2023/03/08 10:10:19;;;;;;;;;;;8.40;69.10;;;9.03;45.93;96615.97;5034689;27;123339;-72
2023/03/08 10:13:01;;;;;;;;;;;8.50;69.40;;;9.08;46.06;96612.16;5048034;27;115083;-71
2023/03/08 10:15:28;;;;;;;;;;;8.50;69.40;;;9.11;46.42;96605.09;5033138;27;113881;-72
2023/03/08 10:17:58;;;;;;;;;;;8.50;69.50;;;9.15;45.85;96609.53;5056889;27;123988;-72
2023/03/08 10:20:30;;;;;;;;;;;8.60;69.90;;;9.22;46.89;96595.94;5047882;27;124300;-73
2023/03/08 10:23:02;;;;;;;;;;;8.70;70.30;;;9.27;46.98;96595.69;5052628;27;114314;-73
2023/03/08 10:25:32;;;;;;;;;;;8.70;70.80;;;9.32;48.32;96602.84;5028112;27;112493;-72
2023/03/08 10:28:02;;;;;;;;;;;8.70;72.40;;;9.36;49.16;96595.47;5053075;27;124531;-72
2023/03/08 10:30:34;;;;;;;;;;;8.80;73.80;;;9.40;48.74;96592.78;5047318;27;123797;-71
2023/03/08 10:33:05;;;;;;;;;;;8.80;74.00;;;9.46;49.36;96580.34;5051437;27;113458;-71
2023/03/08 10:36:00;;;;;;;;;;;8.90;74.50;;;9.53;50.31;96591.53;5049999;27;114052;-72
2023/03/08 10:38:30;;;;;;;;;;;8.90;75.80;;;9.58;51.27;96571.16;5045260;27;124245;-72
2023/03/08 10:41:24;;;;;;;;;;;9.00;77.30;;;9.63;51.11;96566.16;5039663;27;125181;-72
2023/03/08 10:44:12;;;;;;;;;;;9.10;77.30;;;9.74;51.85;96547.88;5036511;27;115044;-75
2023/03/08 10:46:49;;;;;;;;;;;9.20;78.20;;;9.86;52.21;96565.44;5063702;27;114040;-73
2023/03/08 10:49:23;;;;;;;;;;;9.30;78.80;;;9.96;52.43;96562.09;5053314;27;124705;-72
2023/03/08 10:52:06;;;;;;;;;;;9.40;79.80;;;10.06;53.31;96542.19;5051701;27;123318;-73
2023/03/08 10:54:33;;;;;;;;;;;9.50;80.70;;;10.17;52.98;96553.44;5048498;27;115307;-75
2023/03/08 10:57:02;;;;;;;;;;;9.60;81.10;;;10.29;53.41;96533.19;5047280;27;114531;-73
2023/03/08 10:59:33;;;;;;;;;;;9.70;81.60;;;10.41;53.57;96530.25;5048985;27;123195;-71
2023/03/08 11:02:14;;;;;;;;;;;9.90;81.90;;;10.57;53.24;96538.44;5047383;27;123729;-73
2023/03/08 11:04:51;;;;;;;;;;;10.00;81.10;;;10.72;53.15;96551.31;5048060;27;114242;-72
2023/03/08 11:07:26;;;;;;;;;;;10.10;82.10;;;10.83;53.29;96529.41;5039994;27;113985;-73
2023/03/08 11:10:13;;;;;;;;;;;10.30;81.30;;;10.96;53.30;96544.63;5044866;27;124305;-72
2023/03/08 11:12:41;;;;;;;;;;;10.40;81.40;;;11.09;53.13;96525.06;5048347;27;123888;-72
2023/03/08 11:15:18;;;;;;;;;;;10.60;81.50;;;11.21;53.33;96527.63;5041446;27;113409;-72
2023/03/08 11:18:14;;;;;;;;;;;10.70;81.70;;;11.33;53.27;96530.16;5035985;27;113906;-71
2023/03/08 11:20:45;;;;;;;;;;;10.80;81.60;;;11.45;52.91;96524.41;5042422;27;124429;-72
2023/03/08 11:23:21;;;;;;;;;;;10.90;81.70;;;11.55;52.68;96527.69;5061166;27;124094;-72
2023/03/08 11:25:57;;;;;;;;;;;11.00;81.70;;;11.63;52.82;96532.13;5047752;27;115155;-72
2023/03/08 11:28:44;;;;;;;;;;;11.20;81.90;;;11.70;52.95;96533.03;5046470;27;113639;-72
2023/03/08 11:31:16;;;;;;;;;;;11.20;82.00;;;11.74;53.15;96541.38;5044957;27;124804;-71